sensor_id;sensor_type;location;lat;lon;timestamp;P1;durP1;ratioP1;P2;durP2;ratioP2
75171;SDS011;63750;52.418;20.742;2023-01-30T00:00:21;42.80;;;30.90;;
75171;SDS011;63750;52.418;20.742;2023-01-30T00:02:50;42.30;;;31.00;;
75171;SDS011;63750;52.418;20.742;2023-01-30T00:05:19;43.20;;;31.70;;
75171;SDS011;63750;52.418;20.742;2023-01-30T00:07:48;41.60;;;31.10;;
75171;SDS011;63750;52.418;20.742;2023-01-30T00:10:17;41.70;;;32.20;;
75171;SDS011;63750;52.418;20.742;2023-01-30T00:12:45;37.20;;;29.50;;
75171;SDS011;63750;52.418;20.742;2023-01-30T00:15:14;39.00;;;28.90;;
75171;SDS011;63750;52.418;20.742;2023-01-30T00:17:43;37.50;;;29.10;;
75171;SDS011;63750;52.418;20.742;2023-01-30T00:20:12;36.00;;;27.80;;
75171;SDS011;63750;52.418;20.742;2023-01-30T00:22:40;36.70;;;28.40;;
75171;SDS011;63750;52.418;20.742;2023-01-30T00:25:09;37.80;;;28.30;;
75171;SDS011;63750;52.418;20.742;2023-01-30T00:27:38;35.00;;;26.80;;
75171;SDS011;63750;52.418;20.742;2023-01-30T00:30:08;35.90;;;27.10;;
75171;SDS011;63750;52.418;20.742;2023-01-30T00:32:37;35.60;;;27.80;;
75171;SDS011;63750;52.418;20.742;2023-01-30T00:35:06;33.50;;;27.00;;
75171;SDS011;63750;52.418;20.742;2023-01-30T00:37:35;35.30;;;27.10;;
75171;SDS011;63750;52.418;20.742;2023-01-30T00:40:05;32.80;;;25.70;;
75171;SDS011;63750;52.418;20.742;2023-01-30T00:42:34;31.80;;;24.90;;
75171;SDS011;63750;52.418;20.742;2023-01-30T00:45:04;31.20;;;25.10;;
75171;SDS011;63750;52.418;20.742;2023-01-30T00:47:35;33.40;;;25.20;;
75171;SDS011;63750;52.418;20.742;2023-01-30T00:50:04;30.60;;;25.00;;
75171;SDS011;63750;52.418;20.742;2023-01-30T00:52:34;30.70;;;24.70;;
75171;SDS011;63750;52.418;20.742;2023-01-30T00:55:03;31.60;;;25.50;;
75171;SDS011;63750;52.418;20.742;2023-01-30T00:57:33;33.10;;;25.60;;
75171;SDS011;63750;52.418;20.742;2023-01-30T01:00:02;32.50;;;24.80;;
75171;SDS011;63750;52.418;20.742;2023-01-30T01:05:00;32.00;;;25.10;;
75171;SDS011;63750;52.418;20.742;2023-01-30T01:07:29;26.30;;;22.30;;
75171;SDS011;63750;52.418;20.742;2023-01-30T01:09:58;30.20;;;23.00;;
75171;SDS011;63750;52.418;20.742;2023-01-30T01:12:26;27.60;;;22.20;;
75171;SDS011;63750;52.418;20.742;2023-01-30T01:14:55;28.30;;;23.00;;
75171;SDS011;63750;52.418;20.742;2023-01-30T01:17:23;28.20;;;22.70;;
75171;SDS011;63750;52.418;20.742;2023-01-30T01:19:52;31.90;;;24.10;;
75171;SDS011;63750;52.418;20.742;2023-01-30T01:22:21;25.90;;;21.40;;
75171;SDS011;63750;52.418;20.742;2023-01-30T01:24:50;28.30;;;22.60;;
75171;SDS011;63750;52.418;20.742;2023-01-30T01:27:18;26.30;;;22.30;;
75171;SDS011;63750;52.418;20.742;2023-01-30T01:29:47;27.90;;;22.30;;
75171;SDS011;63750;52.418;20.742;2023-01-30T01:32:15;26.40;;;22.10;;
75171;SDS011;63750;52.418;20.742;2023-01-30T01:34:45;25.10;;;21.00;;
75171;SDS011;63750;52.418;20.742;2023-01-30T01:37:14;25.30;;;21.40;;
75171;SDS011;63750;52.418;20.742;2023-01-30T01:39:43;25.70;;;21.60;;
75171;SDS011;63750;52.418;20.742;2023-01-30T01:42:12;27.30;;;21.90;;
75171;SDS011;63750;52.418;20.742;2023-01-30T01:45:02;25.20;;;21.80;;
75171;SDS011;63750;52.418;20.742;2023-01-30T01:47:42;24.80;;;20.50;;
75171;SDS011;63750;52.418;20.742;2023-01-30T01:50:16;25.30;;;21.20;;
75171;SDS011;63750;52.418;20.742;2023-01-30T01:52:48;25.20;;;20.20;;
75171;SDS011;63750;52.418;20.742;2023-01-30T01:55:20;25.00;;;20.70;;
75171;SDS011;63750;52.418;20.742;2023-01-30T01:57:51;24.50;;;19.90;;
75171;SDS011;63750;52.418;20.742;2023-01-30T02:00:24;23.60;;;19.20;;
75171;SDS011;63750;52.418;20.742;2023-01-30T02:02:56;24.20;;;19.80;;
75171;SDS011;63750;52.418;20.742;2023-01-30T02:05:30;26.00;;;19.70;;
75171;SDS011;63750;52.418;20.742;2023-01-30T02:08:01;22.80;;;18.30;;
75171;SDS011;63750;52.418;20.742;2023-01-30T02:10:35;22.50;;;18.50;;
75171;SDS011;63750;52.418;20.742;2023-01-30T02:13:08;22.00;;;18.50;;
75171;SDS011;63750;52.418;20.742;2023-01-30T02:15:37;22.20;;;18.00;;
75171;SDS011;63750;52.418;20.742;2023-01-30T02:18:06;20.40;;;17.00;;
75171;SDS011;63750;52.418;20.742;2023-01-30T02:20:39;21.70;;;18.20;;
75171;SDS011;63750;52.418;20.742;2023-01-30T02:23:25;23.50;;;17.70;;
75171;SDS011;63750;52.418;20.742;2023-01-30T02:29:26;19.90;;;16.40;;
75171;SDS011;63750;52.418;20.742;2023-01-30T02:32:13;19.40;;;16.80;;
75171;SDS011;63750;52.418;20.742;2023-01-30T02:34:52;18.70;;;15.60;;
75171;SDS011;63750;52.418;20.742;2023-01-30T02:37:30;18.60;;;15.00;;
75171;SDS011;63750;52.418;20.742;2023-01-30T02:40:16;17.40;;;14.90;;
75171;SDS011;63750;52.418;20.742;2023-01-30T02:42:59;16.80;;;14.40;;
75171;SDS011;63750;52.418;20.742;2023-01-30T02:45:35;17.90;;;14.60;;
75171;SDS011;63750;52.418;20.742;2023-01-30T02:48:10;16.70;;;14.20;;
75171;SDS011;63750;52.418;20.742;2023-01-30T02:50:43;16.90;;;14.20;;
75171;SDS011;63750;52.418;20.742;2023-01-30T02:53:15;17.20;;;13.90;;
75171;SDS011;63750;52.418;20.742;2023-01-30T02:55:44;16.50;;;13.90;;
75171;SDS011;63750;52.418;20.742;2023-01-30T02:58:13;17.10;;;13.90;;
75171;SDS011;63750;52.418;20.742;2023-01-30T03:00:54;15.70;;;13.50;;
75171;SDS011;63750;52.418;20.742;2023-01-30T03:06:40;16.80;;;13.80;;
75171;SDS011;63750;52.418;20.742;2023-01-30T03:09:21;15.60;;;12.70;;
75171;SDS011;63750;52.418;20.742;2023-01-30T03:11:59;15.80;;;14.00;;
75171;SDS011;63750;52.418;20.742;2023-01-30T03:14:35;14.50;;;13.00;;
75171;SDS011;63750;52.418;20.742;2023-01-30T03:17:11;14.80;;;13.20;;
75171;SDS011;63750;52.418;20.742;2023-01-30T03:19:43;15.50;;;13.30;;
75171;SDS011;63750;52.418;20.742;2023-01-30T03:22:13;15.40;;;13.30;;
75171;SDS011;63750;52.418;20.742;2023-01-30T03:24:41;14.30;;;12.70;;
75171;SDS011;63750;52.418;20.742;2023-01-30T03:27:11;15.50;;;13.90;;
75171;SDS011;63750;52.418;20.742;2023-01-30T03:29:40;15.80;;;13.90;;
75171;SDS011;63750;52.418;20.742;2023-01-30T03:32:09;16.00;;;13.90;;
75171;SDS011;63750;52.418;20.742;2023-01-30T03:34:37;16.30;;;14.60;;
75171;SDS011;63750;52.418;20.742;2023-01-30T03:37:06;16.20;;;13.90;;
75171;SDS011;63750;52.418;20.742;2023-01-30T03:39:35;17.10;;;14.60;;
75171;SDS011;63750;52.418;20.742;2023-01-30T03:42:03;16.40;;;13.90;;
75171;SDS011;63750;52.418;20.742;2023-01-30T03:44:33;17.30;;;14.50;;
75171;SDS011;63750;52.418;20.742;2023-01-30T03:47:02;16.20;;;13.90;;
75171;SDS011;63750;52.418;20.742;2023-01-30T03:49:30;15.20;;;13.10;;
75171;SDS011;63750;52.418;20.742;2023-01-30T03:51:59;16.40;;;14.20;;
75171;SDS011;63750;52.418;20.742;2023-01-30T03:54:28;16.70;;;13.80;;
75171;SDS011;63750;52.418;20.742;2023-01-30T03:56:56;15.90;;;13.90;;
75171;SDS011;63750;52.418;20.742;2023-01-30T03:59:25;19.30;;;15.00;;
75171;SDS011;63750;52.418;20.742;2023-01-30T04:01:54;17.50;;;14.60;;
75171;SDS011;63750;52.418;20.742;2023-01-30T04:04:23;18.80;;;14.90;;
75171;SDS011;63750;52.418;20.742;2023-01-30T04:06:52;19.40;;;14.90;;
75171;SDS011;63750;52.418;20.742;2023-01-30T04:09:20;20.20;;;16.10;;
75171;SDS011;63750;52.418;20.742;2023-01-30T04:11:49;19.30;;;15.70;;
75171;SDS011;63750;52.418;20.742;2023-01-30T04:14:18;17.80;;;15.30;;
75171;SDS011;63750;52.418;20.742;2023-01-30T04:16:47;19.10;;;15.80;;
75171;SDS011;63750;52.418;20.742;2023-01-30T04:19:15;17.50;;;14.90;;
75171;SDS011;63750;52.418;20.742;2023-01-30T04:21:44;20.20;;;15.40;;
75171;SDS011;63750;52.418;20.742;2023-01-30T04:24:12;19.30;;;15.40;;
75171;SDS011;63750;52.418;20.742;2023-01-30T04:26:41;19.00;;;15.50;;
75171;SDS011;63750;52.418;20.742;2023-01-30T04:29:10;19.20;;;15.50;;
75171;SDS011;63750;52.418;20.742;2023-01-30T04:31:38;21.70;;;16.90;;
75171;SDS011;63750;52.418;20.742;2023-01-30T04:34:07;18.10;;;15.20;;
75171;SDS011;63750;52.418;20.742;2023-01-30T04:36:36;20.00;;;16.70;;
75171;SDS011;63750;52.418;20.742;2023-01-30T04:39:04;19.20;;;16.50;;
75171;SDS011;63750;52.418;20.742;2023-01-30T04:41:33;19.90;;;16.20;;
75171;SDS011;63750;52.418;20.742;2023-01-30T04:44:02;20.20;;;16.40;;
75171;SDS011;63750;52.418;20.742;2023-01-30T04:46:31;22.90;;;17.50;;
75171;SDS011;63750;52.418;20.742;2023-01-30T04:48:59;20.10;;;16.30;;
75171;SDS011;63750;52.418;20.742;2023-01-30T04:51:28;20.50;;;16.70;;
75171;SDS011;63750;52.418;20.742;2023-01-30T04:53:57;21.00;;;17.10;;
75171;SDS011;63750;52.418;20.742;2023-01-30T04:56:25;21.60;;;16.70;;
75171;SDS011;63750;52.418;20.742;2023-01-30T04:58:54;22.30;;;17.70;;
75171;SDS011;63750;52.418;20.742;2023-01-30T05:01:23;22.10;;;17.30;;
75171;SDS011;63750;52.418;20.742;2023-01-30T05:03:57;21.70;;;17.00;;
75171;SDS011;63750;52.418;20.742;2023-01-30T05:06:26;20.80;;;17.00;;
75171;SDS011;63750;52.418;20.742;2023-01-30T05:08:56;23.60;;;17.40;;
75171;SDS011;63750;52.418;20.742;2023-01-30T05:11:25;21.60;;;16.80;;
75171;SDS011;63750;52.418;20.742;2023-01-30T05:13:55;26.20;;;18.50;;
75171;SDS011;63750;52.418;20.742;2023-01-30T05:16:24;21.20;;;16.90;;
75171;SDS011;63750;52.418;20.742;2023-01-30T05:18:53;22.30;;;17.30;;
75171;SDS011;63750;52.418;20.742;2023-01-30T05:21:23;23.20;;;18.00;;
75171;SDS011;63750;52.418;20.742;2023-01-30T05:23:53;20.60;;;16.80;;
75171;SDS011;63750;52.418;20.742;2023-01-30T05:26:22;21.80;;;17.30;;
75171;SDS011;63750;52.418;20.742;2023-01-30T05:28:52;22.60;;;17.50;;
75171;SDS011;63750;52.418;20.742;2023-01-30T05:31:22;21.70;;;16.50;;
75171;SDS011;63750;52.418;20.742;2023-01-30T05:33:51;22.30;;;17.00;;
75171;SDS011;63750;52.418;20.742;2023-01-30T05:36:21;22.20;;;16.70;;
75171;SDS011;63750;52.418;20.742;2023-01-30T05:38:50;20.50;;;16.10;;
75171;SDS011;63750;52.418;20.742;2023-01-30T05:41:19;20.50;;;16.20;;
75171;SDS011;63750;52.418;20.742;2023-01-30T05:43:49;20.20;;;17.00;;
75171;SDS011;63750;52.418;20.742;2023-01-30T05:46:18;20.10;;;16.00;;
75171;SDS011;63750;52.418;20.742;2023-01-30T05:48:47;20.10;;;15.50;;
75171;SDS011;63750;52.418;20.742;2023-01-30T05:51:16;17.20;;;15.00;;
75171;SDS011;63750;52.418;20.742;2023-01-30T05:53:47;19.20;;;15.50;;
75171;SDS011;63750;52.418;20.742;2023-01-30T05:56:16;16.90;;;15.00;;
75171;SDS011;63750;52.418;20.742;2023-01-30T05:58:50;18.60;;;14.70;;
75171;SDS011;63750;52.418;20.742;2023-01-30T06:01:19;18.80;;;14.90;;
75171;SDS011;63750;52.418;20.742;2023-01-30T06:03:49;18.90;;;15.00;;
75171;SDS011;63750;52.418;20.742;2023-01-30T06:06:18;17.80;;;14.50;;
75171;SDS011;63750;52.418;20.742;2023-01-30T06:08:51;17.40;;;14.50;;
75171;SDS011;63750;52.418;20.742;2023-01-30T06:11:20;17.90;;;15.40;;
75171;SDS011;63750;52.418;20.742;2023-01-30T06:13:49;18.40;;;15.10;;
75171;SDS011;63750;52.418;20.742;2023-01-30T06:16:18;18.50;;;15.10;;
75171;SDS011;63750;52.418;20.742;2023-01-30T06:18:47;17.90;;;14.00;;
75171;SDS011;63750;52.418;20.742;2023-01-30T06:21:16;18.00;;;14.80;;
75171;SDS011;63750;52.418;20.742;2023-01-30T06:23:44;15.70;;;13.30;;
75171;SDS011;63750;52.418;20.742;2023-01-30T06:26:13;17.00;;;14.30;;
75171;SDS011;63750;52.418;20.742;2023-01-30T06:28:42;18.40;;;14.80;;
75171;SDS011;63750;52.418;20.742;2023-01-30T06:31:10;16.80;;;14.90;;
75171;SDS011;63750;52.418;20.742;2023-01-30T06:33:39;17.50;;;14.30;;
75171;SDS011;63750;52.418;20.742;2023-01-30T06:36:08;16.80;;;14.70;;
75171;SDS011;63750;52.418;20.742;2023-01-30T06:38:37;16.60;;;14.80;;
75171;SDS011;63750;52.418;20.742;2023-01-30T06:41:06;16.80;;;14.20;;
75171;SDS011;63750;52.418;20.742;2023-01-30T06:43:35;16.60;;;14.20;;
75171;SDS011;63750;52.418;20.742;2023-01-30T06:46:04;17.50;;;14.70;;
75171;SDS011;63750;52.418;20.742;2023-01-30T06:48:32;17.60;;;14.50;;
75171;SDS011;63750;52.418;20.742;2023-01-30T06:51:01;17.50;;;13.70;;
75171;SDS011;63750;52.418;20.742;2023-01-30T06:53:30;16.30;;;14.50;;
75171;SDS011;63750;52.418;20.742;2023-01-30T06:55:59;19.80;;;15.00;;
75171;SDS011;63750;52.418;20.742;2023-01-30T06:58:29;18.90;;;15.40;;
75171;SDS011;63750;52.418;20.742;2023-01-30T07:00:57;18.30;;;15.60;;
75171;SDS011;63750;52.418;20.742;2023-01-30T07:03:26;19.90;;;15.90;;
75171;SDS011;63750;52.418;20.742;2023-01-30T07:05:55;20.30;;;16.30;;
75171;SDS011;63750;52.418;20.742;2023-01-30T07:08:23;18.70;;;15.00;;
75171;SDS011;63750;52.418;20.742;2023-01-30T07:10:52;19.80;;;15.30;;
75171;SDS011;63750;52.418;20.742;2023-01-30T07:13:21;19.30;;;15.70;;
75171;SDS011;63750;52.418;20.742;2023-01-30T07:15:49;24.30;;;17.70;;
75171;SDS011;63750;52.418;20.742;2023-01-30T07:18:18;26.20;;;19.40;;
75171;SDS011;63750;52.418;20.742;2023-01-30T07:20:47;21.40;;;17.50;;
75171;SDS011;63750;52.418;20.742;2023-01-30T07:23:16;20.00;;;16.00;;
75171;SDS011;63750;52.418;20.742;2023-01-30T07:25:45;19.10;;;16.10;;
75171;SDS011;63750;52.418;20.742;2023-01-30T07:28:13;19.30;;;16.70;;
75171;SDS011;63750;52.418;20.742;2023-01-30T07:30:42;20.30;;;16.60;;
75171;SDS011;63750;52.418;20.742;2023-01-30T07:33:11;21.30;;;17.30;;
75171;SDS011;63750;52.418;20.742;2023-01-30T07:35:40;23.40;;;17.00;;
75171;SDS011;63750;52.418;20.742;2023-01-30T07:38:08;23.00;;;17.90;;
75171;SDS011;63750;52.418;20.742;2023-01-30T07:40:37;22.30;;;18.00;;
75171;SDS011;63750;52.418;20.742;2023-01-30T07:43:06;25.10;;;18.50;;
75171;SDS011;63750;52.418;20.742;2023-01-30T07:45:38;22.70;;;17.90;;
75171;SDS011;63750;52.418;20.742;2023-01-30T07:48:09;19.90;;;17.10;;
75171;SDS011;63750;52.418;20.742;2023-01-30T07:50:42;26.30;;;19.20;;
75171;SDS011;63750;52.418;20.742;2023-01-30T07:53:12;23.00;;;17.80;;
75171;SDS011;63750;52.418;20.742;2023-01-30T07:55:42;23.00;;;19.20;;
75171;SDS011;63750;52.418;20.742;2023-01-30T07:58:12;23.10;;;20.00;;
75171;SDS011;63750;52.418;20.742;2023-01-30T08:00:41;23.00;;;18.70;;
75171;SDS011;63750;52.418;20.742;2023-01-30T08:03:12;25.20;;;19.70;;
75171;SDS011;63750;52.418;20.742;2023-01-30T08:05:42;24.10;;;19.30;;
75171;SDS011;63750;52.418;20.742;2023-01-30T08:08:12;24.10;;;19.30;;
75171;SDS011;63750;52.418;20.742;2023-01-30T08:10:41;24.60;;;19.50;;
75171;SDS011;63750;52.418;20.742;2023-01-30T08:13:10;24.50;;;20.10;;
75171;SDS011;63750;52.418;20.742;2023-01-30T08:15:39;24.10;;;19.00;;
75171;SDS011;63750;52.418;20.742;2023-01-30T08:18:07;26.80;;;20.60;;
75171;SDS011;63750;52.418;20.742;2023-01-30T08:20:36;24.70;;;20.30;;
75171;SDS011;63750;52.418;20.742;2023-01-30T08:23:05;26.30;;;20.80;;
75171;SDS011;63750;52.418;20.742;2023-01-30T08:25:34;26.40;;;21.00;;
75171;SDS011;63750;52.418;20.742;2023-01-30T08:28:03;25.70;;;21.00;;
75171;SDS011;63750;52.418;20.742;2023-01-30T08:30:32;26.40;;;20.50;;
75171;SDS011;63750;52.418;20.742;2023-01-30T08:33:01;27.00;;;21.50;;
75171;SDS011;63750;52.418;20.742;2023-01-30T08:35:29;25.60;;;20.50;;
75171;SDS011;63750;52.418;20.742;2023-01-30T08:37:58;28.10;;;22.20;;
75171;SDS011;63750;52.418;20.742;2023-01-30T08:40:26;26.90;;;22.10;;
75171;SDS011;63750;52.418;20.742;2023-01-30T08:42:55;28.80;;;22.30;;
75171;SDS011;63750;52.418;20.742;2023-01-30T08:45:23;29.00;;;22.90;;
75171;SDS011;63750;52.418;20.742;2023-01-30T08:47:53;29.30;;;22.20;;
75171;SDS011;63750;52.418;20.742;2023-01-30T08:50:25;28.80;;;23.00;;
75171;SDS011;63750;52.418;20.742;2023-01-30T08:52:54;28.20;;;22.40;;
75171;SDS011;63750;52.418;20.742;2023-01-30T08:55:23;28.70;;;23.70;;
75171;SDS011;63750;52.418;20.742;2023-01-30T08:57:52;27.60;;;22.80;;
75171;SDS011;63750;52.418;20.742;2023-01-30T09:00:23;29.90;;;22.80;;
75171;SDS011;63750;52.418;20.742;2023-01-30T09:02:53;29.80;;;23.00;;
75171;SDS011;63750;52.418;20.742;2023-01-30T09:05:23;28.00;;;23.10;;
75171;SDS011;63750;52.418;20.742;2023-01-30T09:07:52;28.10;;;22.80;;
75171;SDS011;63750;52.418;20.742;2023-01-30T09:10:21;30.60;;;23.20;;
75171;SDS011;63750;52.418;20.742;2023-01-30T09:12:50;28.90;;;22.70;;
75171;SDS011;63750;52.418;20.742;2023-01-30T09:15:18;27.60;;;22.90;;
75171;SDS011;63750;52.418;20.742;2023-01-30T09:17:47;26.10;;;22.20;;
75171;SDS011;63750;52.418;20.742;2023-01-30T09:20:17;24.30;;;20.70;;
75171;SDS011;63750;52.418;20.742;2023-01-30T09:22:46;27.90;;;21.50;;
75171;SDS011;63750;52.418;20.742;2023-01-30T09:25:14;27.70;;;22.60;;
75171;SDS011;63750;52.418;20.742;2023-01-30T09:27:43;25.90;;;22.40;;
75171;SDS011;63750;52.418;20.742;2023-01-30T09:30:16;27.20;;;22.10;;
75171;SDS011;63750;52.418;20.742;2023-01-30T09:32:45;25.70;;;20.60;;
75171;SDS011;63750;52.418;20.742;2023-01-30T09:35:15;26.40;;;21.50;;
75171;SDS011;63750;52.418;20.742;2023-01-30T09:37:47;25.50;;;20.40;;
75171;SDS011;63750;52.418;20.742;2023-01-30T09:40:19;24.80;;;20.90;;
75171;SDS011;63750;52.418;20.742;2023-01-30T09:45:54;24.20;;;20.00;;
75171;SDS011;63750;52.418;20.742;2023-01-30T09:48:30;25.10;;;21.40;;
75171;SDS011;63750;52.418;20.742;2023-01-30T09:51:11;26.40;;;21.90;;
75171;SDS011;63750;52.418;20.742;2023-01-30T09:53:58;26.00;;;21.10;;
75171;SDS011;63750;52.418;20.742;2023-01-30T09:56:39;25.20;;;20.70;;
75171;SDS011;63750;52.418;20.742;2023-01-30T09:59:14;26.60;;;20.70;;
75171;SDS011;63750;52.418;20.742;2023-01-30T10:01:50;24.60;;;20.90;;
75171;SDS011;63750;52.418;20.742;2023-01-30T10:04:26;25.20;;;20.70;;
75171;SDS011;63750;52.418;20.742;2023-01-30T10:07:00;24.90;;;20.40;;
75171;SDS011;63750;52.418;20.742;2023-01-30T10:09:41;26.80;;;20.90;;
75171;SDS011;63750;52.418;20.742;2023-01-30T10:12:24;24.00;;;19.70;;
75171;SDS011;63750;52.418;20.742;2023-01-30T10:15:13;24.40;;;20.10;;
75171;SDS011;63750;52.418;20.742;2023-01-30T10:17:52;22.00;;;19.00;;
75171;SDS011;63750;52.418;20.742;2023-01-30T10:20:42;23.30;;;19.40;;
75171;SDS011;63750;52.418;20.742;2023-01-30T10:23:24;22.70;;;19.00;;
75171;SDS011;63750;52.418;20.742;2023-01-30T10:26:07;23.70;;;18.70;;
75171;SDS011;63750;52.418;20.742;2023-01-30T10:28:41;24.10;;;19.70;;
75171;SDS011;63750;52.418;20.742;2023-01-30T10:31:17;22.90;;;19.30;;
75171;SDS011;63750;52.418;20.742;2023-01-30T10:33:50;21.50;;;18.50;;
75171;SDS011;63750;52.418;20.742;2023-01-30T10:36:26;21.10;;;18.80;;
75171;SDS011;63750;52.418;20.742;2023-01-30T10:39:02;22.60;;;19.30;;
75171;SDS011;63750;52.418;20.742;2023-01-30T10:41:36;22.20;;;19.10;;
75171;SDS011;63750;52.418;20.742;2023-01-30T10:44:11;21.90;;;19.20;;
75171;SDS011;63750;52.418;20.742;2023-01-30T10:46:46;24.50;;;19.70;;
75171;SDS011;63750;52.418;20.742;2023-01-30T10:49:29;22.30;;;18.20;;
75171;SDS011;63750;52.418;20.742;2023-01-30T10:52:06;21.90;;;18.70;;
75171;SDS011;63750;52.418;20.742;2023-01-30T10:54:47;21.00;;;18.50;;
75171;SDS011;63750;52.418;20.742;2023-01-30T10:57:26;21.90;;;19.10;;
75171;SDS011;63750;52.418;20.742;2023-01-30T11:00:07;19.70;;;17.20;;
75171;SDS011;63750;52.418;20.742;2023-01-30T11:02:47;20.80;;;18.20;;
75171;SDS011;63750;52.418;20.742;2023-01-30T11:05:29;20.90;;;18.70;;
75171;SDS011;63750;52.418;20.742;2023-01-30T11:08:13;23.20;;;18.90;;
75171;SDS011;63750;52.418;20.742;2023-01-30T11:10:47;21.20;;;18.30;;
75171;SDS011;63750;52.418;20.742;2023-01-30T11:13:18;20.90;;;18.20;;
75171;SDS011;63750;52.418;20.742;2023-01-30T11:15:48;19.10;;;16.80;;
75171;SDS011;63750;52.418;20.742;2023-01-30T11:18:19;20.30;;;18.00;;
75171;SDS011;63750;52.418;20.742;2023-01-30T11:21:02;20.00;;;17.70;;
75171;SDS011;63750;52.418;20.742;2023-01-30T11:23:35;19.30;;;17.00;;
75171;SDS011;63750;52.418;20.742;2023-01-30T11:26:11;20.50;;;17.60;;
75171;SDS011;63750;52.418;20.742;2023-01-30T11:28:46;18.50;;;16.00;;
75171;SDS011;63750;52.418;20.742;2023-01-30T11:31:19;19.40;;;17.30;;
75171;SDS011;63750;52.418;20.742;2023-01-30T11:33:59;19.10;;;17.10;;
75171;SDS011;63750;52.418;20.742;2023-01-30T11:36:30;20.60;;;17.80;;
75171;SDS011;63750;52.418;20.742;2023-01-30T11:39:01;19.80;;;17.70;;
75171;SDS011;63750;52.418;20.742;2023-01-30T11:41:54;19.10;;;17.00;;
75171;SDS011;63750;52.418;20.742;2023-01-30T11:44:26;19.10;;;17.10;;
75171;SDS011;63750;52.418;20.742;2023-01-30T11:46:58;20.50;;;17.50;;
75171;SDS011;63750;52.418;20.742;2023-01-30T11:49:31;18.40;;;16.30;;
75171;SDS011;63750;52.418;20.742;2023-01-30T11:52:03;19.50;;;17.40;;
75171;SDS011;63750;52.418;20.742;2023-01-30T11:54:33;19.50;;;17.50;;
75171;SDS011;63750;52.418;20.742;2023-01-30T11:57:05;19.70;;;17.10;;
75171;SDS011;63750;52.418;20.742;2023-01-30T11:59:38;18.10;;;16.20;;
75171;SDS011;63750;52.418;20.742;2023-01-30T12:02:13;18.50;;;16.60;;
75171;SDS011;63750;52.418;20.742;2023-01-30T12:04:46;18.60;;;16.70;;
75171;SDS011;63750;52.418;20.742;2023-01-30T12:07:19;18.60;;;16.70;;
75171;SDS011;63750;52.418;20.742;2023-01-30T12:09:49;18.60;;;16.70;;
75171;SDS011;63750;52.418;20.742;2023-01-30T12:12:29;18.20;;;16.40;;
75171;SDS011;63750;52.418;20.742;2023-01-30T12:15:12;18.30;;;16.40;;
75171;SDS011;63750;52.418;20.742;2023-01-30T12:17:48;19.40;;;17.30;;
75171;SDS011;63750;52.418;20.742;2023-01-30T12:20:25;18.90;;;17.00;;
75171;SDS011;63750;52.418;20.742;2023-01-30T12:23:06;20.90;;;18.40;;
75171;SDS011;63750;52.418;20.742;2023-01-30T12:25:42;19.80;;;17.70;;
75171;SDS011;63750;52.418;20.742;2023-01-30T12:28:19;19.50;;;17.40;;
75171;SDS011;63750;52.418;20.742;2023-01-30T12:30:55;20.30;;;18.20;;
75171;SDS011;63750;52.418;20.742;2023-01-30T12:33:29;20.10;;;18.00;;
75171;SDS011;63750;52.418;20.742;2023-01-30T12:36:02;19.90;;;17.80;;
75171;SDS011;63750;52.418;20.742;2023-01-30T12:38:40;20.50;;;18.10;;
75171;SDS011;63750;52.418;20.742;2023-01-30T12:41:29;21.40;;;19.00;;
75171;SDS011;63750;52.418;20.742;2023-01-30T12:44:11;21.00;;;18.20;;
75171;SDS011;63750;52.418;20.742;2023-01-30T12:46:57;20.50;;;18.30;;
75171;SDS011;63750;52.418;20.742;2023-01-30T12:49:46;20.50;;;18.40;;
75171;SDS011;63750;52.418;20.742;2023-01-30T12:55:28;20.70;;;18.50;;
75171;SDS011;63750;52.418;20.742;2023-01-30T12:58:08;20.20;;;17.90;;
75171;SDS011;63750;52.418;20.742;2023-01-30T13:00:44;20.30;;;18.10;;
75171;SDS011;63750;52.418;20.742;2023-01-30T13:03:28;20.00;;;17.90;;
75171;SDS011;63750;52.418;20.742;2023-01-30T13:06:05;21.20;;;18.20;;
75171;SDS011;63750;52.418;20.742;2023-01-30T13:08:48;21.70;;;19.00;;
75171;SDS011;63750;52.418;20.742;2023-01-30T13:11:30;22.50;;;19.00;;
75171;SDS011;63750;52.418;20.742;2023-01-30T13:14:08;21.20;;;18.90;;
75171;SDS011;63750;52.418;20.742;2023-01-30T13:16:49;20.70;;;18.50;;
75171;SDS011;63750;52.418;20.742;2023-01-30T13:19:28;21.00;;;18.80;;
75171;SDS011;63750;52.418;20.742;2023-01-30T13:22:02;22.90;;;19.70;;
75171;SDS011;63750;52.418;20.742;2023-01-30T13:24:40;21.80;;;19.50;;
75171;SDS011;63750;52.418;20.742;2023-01-30T13:27:17;23.00;;;19.40;;
75171;SDS011;63750;52.418;20.742;2023-01-30T13:29:48;23.90;;;20.70;;
75171;SDS011;63750;52.418;20.742;2023-01-30T13:32:25;24.00;;;20.80;;
75171;SDS011;63750;52.418;20.742;2023-01-30T13:35:01;25.30;;;21.20;;
75171;SDS011;63750;52.418;20.742;2023-01-30T13:37:35;26.50;;;21.60;;
75171;SDS011;63750;52.418;20.742;2023-01-30T13:40:07;25.30;;;21.50;;
75171;SDS011;63750;52.418;20.742;2023-01-30T13:42:42;26.40;;;22.00;;
75171;SDS011;63750;52.418;20.742;2023-01-30T13:45:19;27.60;;;22.80;;
75171;SDS011;63750;52.418;20.742;2023-01-30T13:47:54;28.10;;;22.90;;
75171;SDS011;63750;52.418;20.742;2023-01-30T13:50:44;25.40;;;22.00;;
75171;SDS011;63750;52.418;20.742;2023-01-30T13:53:21;29.10;;;23.90;;
75171;SDS011;63750;52.418;20.742;2023-01-30T13:55:56;29.30;;;23.70;;
75171;SDS011;63750;52.418;20.742;2023-01-30T13:58:36;29.10;;;23.40;;
75171;SDS011;63750;52.418;20.742;2023-01-30T14:01:12;26.10;;;21.70;;
75171;SDS011;63750;52.418;20.742;2023-01-30T14:03:41;26.10;;;22.00;;
75171;SDS011;63750;52.418;20.742;2023-01-30T14:09:04;24.40;;;21.40;;
75171;SDS011;63750;52.418;20.742;2023-01-30T14:11:47;25.00;;;21.50;;
75171;SDS011;63750;52.418;20.742;2023-01-30T14:14:24;28.60;;;22.40;;
75171;SDS011;63750;52.418;20.742;2023-01-30T14:16:55;27.60;;;22.80;;
75171;SDS011;63750;52.418;20.742;2023-01-30T14:19:38;27.00;;;22.70;;
75171;SDS011;63750;52.418;20.742;2023-01-30T14:22:22;27.80;;;22.90;;
75171;SDS011;63750;52.418;20.742;2023-01-30T14:31:13;27.70;;;21.60;;
75171;SDS011;63750;52.418;20.742;2023-01-30T14:46:37;22.40;;;20.00;;
75171;SDS011;63750;52.418;20.742;2023-01-30T14:51:58;26.80;;;21.70;;
75171;SDS011;63750;52.418;20.742;2023-01-30T14:54:29;24.40;;;20.10;;
75171;SDS011;63750;52.418;20.742;2023-01-30T14:57:12;22.10;;;19.40;;
75171;SDS011;63750;52.418;20.742;2023-01-30T14:59:48;21.50;;;19.10;;
75171;SDS011;63750;52.418;20.742;2023-01-30T15:02:21;23.70;;;20.00;;
75171;SDS011;63750;52.418;20.742;2023-01-30T15:04:57;23.60;;;19.00;;
75171;SDS011;63750;52.418;20.742;2023-01-30T15:07:36;24.80;;;21.00;;
75171;SDS011;63750;52.418;20.742;2023-01-30T15:10:12;26.70;;;22.60;;
75171;SDS011;63750;52.418;20.742;2023-01-30T15:12:56;24.40;;;20.80;;
75171;SDS011;63750;52.418;20.742;2023-01-30T15:15:44;24.00;;;20.70;;
75171;SDS011;63750;52.418;20.742;2023-01-30T15:18:23;22.40;;;19.80;;